Storm Events Database

Event Details

Event Thunderstorm Wind
Magnitude 70 kts.
State TEXAS
County/Area COLLIN
WFO FWD
Report Source Newspaper
NCDC Data Source CSV
Begin Date 2011-04-10 23:34:00.0 CST-6
Begin Location 0N PROSPER
Begin Lat/Lon 33.23/-96.82
End Date 2011-04-10 23:34:00.0 CST-6
Deaths Direct/Indirect 0/0 (fatality details below, when available...)
Injuries Direct/Indirect 0/0
Property Damage 5.00K
Crop Damage 0.00K
Episode Narrative A strong upper level low pressure system over the southern Rockies aided in the late evening development of severe thunderstorms along a dryline across north central and central Texas. One of these storms was a strong linear mesoscale convective system which produced a swath of wind damage from Goldthwaite northeast into southern portions of the Dallas/Fort Worth Metroplex and continued northeast to near Sulphur Springs. A swath of wind damage consistent with 70 to 80 mph winds was associated with this storm. Other supercell thunderstorms in the area produced brief tornadoes and large hail.
Event Narrative Winds up to 80 mph were estimated in Prosper.


     ‚Äč



All events for this episode:

Location County/Zone St. Date Time T.Z. Type Mag Dth Inj PrD CrD
Totals: 0 2 4.191M 250.00K
PIONEER EASTLAND CO. TX 04/10/2011 18:53 CST-6 Hail 1.00 in. 0 0 0.00K 0.00K
WEATHERFORD PARKER CO. TX 04/10/2011 20:45 CST-6 Thunderstorm Wind 74 kts. EG 0 0 20.00K 0.00K
DE LEON COMANCHE CO. TX 04/10/2011 21:05 CST-6 Thunderstorm Wind 56 kts. EG 0 0 0.00K 0.00K
DE LEON COMANCHE CO. TX 04/10/2011 21:06 CST-6 Hail 0.88 in. 0 0 0.00K 0.00K
BOWIE MONTAGUE CO. TX 04/10/2011 21:10 CST-6 Hail 1.75 in. 0 0 10.00K 0.00K
LAKE WORTH TARRANT CO. TX 04/10/2011 21:12 CST-6 Hail 1.75 in. 0 0 10.00K 0.00K
MONTAGUE MONTAGUE CO. TX 04/10/2011 21:50 CST-6 Hail 1.00 in. 0 0 0.00K 0.00K
MULLIN MILLS CO. TX 04/10/2011 22:51 CST-6 Thunderstorm Wind 61 kts. EG 0 0 2.00K 0.00K
HASLET TARRANT CO. TX 04/10/2011 22:55 CST-6 Thunderstorm Wind 56 kts. EG 0 0 0.00K 0.00K
ROANOKE VLY ARPT DENTON CO. TX 04/10/2011 22:57 CST-6 Thunderstorm Wind 61 kts. EG 0 0 200.00K 0.00K
INDIAN GAP HAMILTON CO. TX 04/10/2011 23:00 CST-6 Thunderstorm Wind 65 kts. EG 0 0 300.00K 250.00K
PRIDDY MILLS CO. TX 04/10/2011 23:02 CST-6 Hail 1.75 in. 0 0 2.00K 0.00K
PRIDDY MILLS CO. TX 04/10/2011 23:02 CST-6 Thunderstorm Wind 61 kts. EG 0 0 25.00K 0.00K
CORINTH DENTON CO. TX 04/10/2011 23:05 CST-6 Hail 1.00 in. 0 0 0.00K 0.00K
CORINTH DENTON CO. TX 04/10/2011 23:08 CST-6 Thunderstorm Wind 52 kts. EG 0 0 3.00K 0.00K
DENTON DENTON CO. TX 04/10/2011 23:15 CST-6 Thunderstorm Wind 61 kts. EG 0 0 7.00K 0.00K
POTTSVILLE HAMILTON CO. TX 04/10/2011 23:15 CST-6 Hail 1.75 in. 0 0 25.00K 0.00K
POTTSVILLE HAMILTON CO. TX 04/10/2011 23:15 CST-6 Thunderstorm Wind 70 kts. EG 0 0 8.00K 0.00K
NAVO DENTON CO. TX 04/10/2011 23:25 CST-6 Thunderstorm Wind 61 kts. EG 0 0 25.00K 0.00K
NAVO DENTON CO. TX 04/10/2011 23:25 CST-6 Hail 1.50 in. 0 0 150.00K 0.00K
NAVO DENTON CO. TX 04/10/2011 23:26 CST-6 Hail 1.75 in. 0 0 5.00K 0.00K
ROCKHILL COLLIN CO. TX 04/10/2011 23:29 CST-6 Hail 1.50 in. 0 0 10.00K 0.00K
PROSPER COLLIN CO. TX 04/10/2011 23:34 CST-6 Hail 2.75 in. 0 0 200.00K 0.00K
PROSPER COLLIN CO. TX 04/10/2011 23:34 CST-6 Thunderstorm Wind 70 kts. EG 0 0 5.00K 0.00K
HAMILTON HAMILTON CO. TX 04/10/2011 23:35 CST-6 Hail 1.75 in. 0 0 250.00K 0.00K
HAMILTON MUNI ARPT HAMILTON CO. TX 04/10/2011 23:35 CST-6 Thunderstorm Wind 56 kts. MG 0 0 200.00K 0.00K
LANHAM HAMILTON CO. TX 04/10/2011 23:37 CST-6 Thunderstorm Wind 61 kts. EG 0 0 50.00K 0.00K
CRANFILLS GAP BOSQUE CO. TX 04/10/2011 23:54 CST-6 Thunderstorm Wind 70 kts. EG 0 0 30.00K 0.00K
CRANFILLS GAP BOSQUE CO. TX 04/10/2011 23:54 CST-6 Thunderstorm Wind 70 kts. EG 0 0 10.00K 0.00K
KOPPERL BOSQUE CO. TX 04/10/2011 23:55 CST-6 Thunderstorm Wind 65 kts. EG 0 0 10.00K 0.00K
MERIDIAN BOSQUE CO. TX 04/10/2011 23:55 CST-6 Thunderstorm Wind 65 kts. EG 0 0 0.00K 0.00K
CLIFTON BOSQUE CO. TX 04/10/2011 23:56 CST-6 Thunderstorm Wind 70 kts. EG 0 0 50.00K 0.00K
GODLEY JOHNSON CO. TX 04/11/2011 00:00 CST-6 Thunderstorm Wind 65 kts. EG 0 0 7.00K 0.00K
HASLET TARRANT CO. TX 04/11/2011 00:00 CST-6 Thunderstorm Wind 56 kts. EG 0 0 20.00K 0.00K
MERIDIAN BOSQUE CO. TX 04/11/2011 00:00 CST-6 Thunderstorm Wind 65 kts. EG 0 0 2.00K 0.00K
WEATHERFORD JCT JOHNSON CO. TX 04/11/2011 00:06 CST-6 Thunderstorm Wind 75 kts. EG 0 0 35.00K 0.00K
BLUM HILL CO. TX 04/11/2011 00:08 CST-6 Thunderstorm Wind 65 kts. EG 0 0 0.00K 0.00K
LAKE PAT CLEBURNE JOHNSON CO. TX 04/11/2011 00:09 CST-6 Tornado EF1 0 0 150.00K 0.00K
WATAUGA TARRANT CO. TX 04/11/2011 00:11 CST-6 Thunderstorm Wind 56 kts. EG 0 0 0.00K 0.00K
RIO VISTA JOHNSON CO. TX 04/11/2011 00:12 CST-6 Thunderstorm Wind 70 kts. EG 0 0 250.00K 0.00K
CLEBURNE JOHNSON CO. TX 04/11/2011 00:15 CST-6 Thunderstorm Wind 75 kts. EG 0 0 10.00K 0.00K
ALVARADO JOHNSON CO. TX 04/11/2011 00:22 CST-6 Tornado EF1 0 2 100.00K 0.00K
ALVARADO JOHNSON CO. TX 04/11/2011 00:23 CST-6 Thunderstorm Wind 70 kts. EG 0 0 300.00K 0.00K
BURLESON JOHNSON CO. TX 04/11/2011 00:23 CST-6 Thunderstorm Wind 61 kts. MG 0 0 0.00K 0.00K
BONHAM FANNIN CO. TX 04/11/2011 00:25 CST-6 Hail 1.00 in. 0 0 0.00K 0.00K
KENNEDALE TARRANT CO. TX 04/11/2011 00:25 CST-6 Thunderstorm Wind 56 kts. EG 0 0 0.00K 0.00K
PARKER JOHNSON CO. TX 04/11/2011 00:26 CST-6 Thunderstorm Wind 58 kts. MG 0 0 0.00K 0.00K
GRANDVIEW JOHNSON CO. TX 04/11/2011 00:30 CST-6 Thunderstorm Wind 70 kts. EG 0 0 150.00K 0.00K
VENUS JOHNSON CO. TX 04/11/2011 00:30 CST-6 Thunderstorm Wind 70 kts. EG 0 0 40.00K 0.00K
VENUS JOHNSON CO. TX 04/11/2011 00:30 CST-6 Thunderstorm Wind 70 kts. EG 0 0 90.00K 0.00K
MANSFIELD TARRANT CO. TX 04/11/2011 00:32 CST-6 Thunderstorm Wind 53 kts. MG 0 0 0.00K 0.00K
VENUS JOHNSON CO. TX 04/11/2011 00:32 CST-6 Thunderstorm Wind 70 kts. EG 0 0 20.00K 0.00K
VENUS JOHNSON CO. TX 04/11/2011 00:35 CST-6 Thunderstorm Wind 65 kts. EG 0 0 0.00K 0.00K
ALVARADO JOHNSON CO. TX 04/11/2011 00:36 CST-6 Thunderstorm Wind 71 kts. MG 0 0 0.00K 0.00K
MOUNTAIN PEAK ELLIS CO. TX 04/11/2011 00:39 CST-6 Thunderstorm Wind 56 kts. EG 0 0 5.00K 0.00K
WAXAHACHIE ELLIS CO. TX 04/11/2011 00:43 CST-6 Thunderstorm Wind 70 kts. EG 0 0 600.00K 0.00K
DUNCANVILLE DALLAS CO. TX 04/11/2011 00:50 CST-6 Thunderstorm Wind 65 kts. EG 0 0 3.00K 0.00K
LONE ELM ELLIS CO. TX 04/11/2011 00:50 CST-6 Thunderstorm Wind 70 kts. EG 0 0 25.00K 0.00K
SERVICE ELLIS CO. TX 04/11/2011 00:51 CST-6 Thunderstorm Wind 78 kts. MG 0 0 0.00K 0.00K
LANCASTER ARPT DALLAS CO. TX 04/11/2011 00:55 CST-6 Thunderstorm Wind 65 kts. EG 0 0 0.00K 0.00K
LANCASTER ARPT DALLAS CO. TX 04/11/2011 00:55 CST-6 Thunderstorm Wind 65 kts. EG 0 0 0.00K 0.00K
SARDIS ELLIS CO. TX 04/11/2011 00:57 CST-6 Thunderstorm Wind 53 kts. EG 0 0 0.00K 0.00K
LANCASTER DALLAS CO. TX 04/11/2011 01:00 CST-6 Thunderstorm Wind 83 kts. EG 0 0 30.00K 0.00K
SEAGOVILLE DALLAS CO. TX 04/11/2011 01:06 CST-6 Thunderstorm Wind 65 kts. EG 0 0 40.00K 0.00K
CRANDALL KAUFMAN CO. TX 04/11/2011 01:10 CST-6 Thunderstorm Wind 62 kts. EG 0 0 10.00K 0.00K
ROWLETT DALLAS CO. TX 04/11/2011 01:11 CST-6 Hail 1.00 in. 0 0 0.00K 0.00K
FORNEY KAUFMAN CO. TX 04/11/2011 01:13 CST-6 Tornado EF1 0 0 60.00K 0.00K
CRANDALL KAUFMAN CO. TX 04/11/2011 01:15 CST-6 Thunderstorm Wind 55 kts. MG 0 0 0.00K 0.00K
FORNEY KAUFMAN CO. TX 04/11/2011 01:15 CST-6 Thunderstorm Wind 61 kts. EG 0 0 75.00K 0.00K
TERRELL KAUFMAN CO. TX 04/11/2011 01:20 CST-6 Thunderstorm Wind 61 kts. EG 0 0 150.00K 0.00K
TERRELL WALLACE ARPT KAUFMAN CO. TX 04/11/2011 01:20 CST-6 Thunderstorm Wind 74 kts. EG 0 0 40.00K 0.00K
QUINLAN HUNT CO. TX 04/11/2011 01:30 CST-6 Thunderstorm Wind 78 kts. EG 0 0 100.00K 0.00K
CASH HUNT CO. TX 04/11/2011 01:34 CST-6 Tornado EF1 0 0 250.00K 0.00K
CUMBY HOPKINS CO. TX 04/11/2011 01:45 CST-6 Thunderstorm Wind 65 kts. EG 0 0 15.00K 0.00K
SULPHUR SPGS HOPKINS CO. TX 04/11/2011 02:05 CST-6 Thunderstorm Wind 70 kts. EG 0 0 7.00K 0.00K
Totals: 0 2 4.191M 250.00K